Time;durP1;ratioP1;P1;durP2;ratioP2;P2;SDS_P1;SDS_P2;PMS_P1;PMS_P2;Temp;Humidity;BMP_temperature;BMP_pressure;BME280_temperature;BME280_humidity;BME280_pressure;Samples;Min_cycle;Max_cycle;Signal;HPM_P1;HPM_P2
2021/07/15 00:00:48;;;;;;;45.92;19.45;;;16.90;99.90;;;;;;5033448;28;20037;-65
2021/07/15 00:03:20;;;;;;;41.63;19.65;;;16.90;99.90;;;;;;5032246;28;20040;-65
2021/07/15 00:05:47;;;;;;;35.50;19.55;;;17.00;99.90;;;;;;5032079;28;20021;-65
2021/07/15 00:08:18;;;;;;;45.95;19.88;;;17.00;99.90;;;;;;5032088;28;20063;-65
2021/07/15 00:10:47;;;;;;;50.80;20.88;;;17.00;99.90;;;;;;5033350;28;20238;-65
2021/07/15 00:13:14;;;;;;;41.22;20.13;;;17.00;99.90;;;;;;5033234;28;20466;-65
2021/07/15 00:15:43;;;;;;;36.45;20.33;;;17.00;99.90;;;;;;5033357;28;20136;-65
2021/07/15 00:18:11;;;;;;;43.47;20.00;;;17.00;99.90;;;;;;5033300;28;20364;-64
2021/07/15 00:20:45;;;;;;;43.22;19.73;;;17.00;99.90;;;;;;5033121;28;20435;-65
2021/07/15 00:23:12;;;;;;;40.15;19.35;;;17.00;99.90;;;;;;5033128;28;20087;-65
2021/07/15 00:25:39;;;;;;;45.75;19.67;;;17.10;99.90;;;;;;5033149;28;20025;-65
2021/07/15 00:28:06;;;;;;;39.88;20.20;;;17.10;99.90;;;;;;5032978;28;20033;-64
2021/07/15 00:30:32;;;;;;;45.38;20.52;;;17.00;99.90;;;;;;5031707;28;20022;-65
2021/07/15 00:32:59;;;;;;;47.35;21.20;;;17.00;99.90;;;;;;5032909;28;20032;-65
2021/07/15 00:35:24;;;;;;;43.20;21.00;;;17.00;99.90;;;;;;5032796;28;20101;-65
2021/07/15 00:37:50;;;;;;;35.55;19.90;;;17.00;99.90;;;;;;5032872;28;20108;-65
2021/07/15 00:40:17;;;;;;;43.78;20.75;;;17.00;99.90;;;;;;5032732;28;20036;-65
2021/07/15 00:42:43;;;;;;;47.00;22.33;;;17.00;99.90;;;;;;5032921;28;20429;-65
2021/07/15 00:45:11;;;;;;;42.58;22.77;;;17.10;99.90;;;;;;5032729;28;20022;-65
2021/07/15 00:47:37;;;;;;;42.97;22.58;;;17.00;99.90;;;;;;5031676;28;20544;-65
2021/07/15 00:50:05;;;;;;;38.30;22.00;;;17.10;99.90;;;;;;5032703;28;20021;-65
2021/07/15 00:52:32;;;;;;;40.95;21.67;;;17.00;99.90;;;;;;5032555;28;20020;-65
2021/07/15 00:54:57;;;;;;;41.63;22.92;;;17.00;99.90;;;;;;5032748;28;20026;-65
2021/07/15 00:57:23;;;;;;;44.92;23.00;;;17.00;99.90;;;;;;5032474;28;20036;-65
2021/07/15 00:59:51;;;;;;;45.67;23.50;;;17.00;99.90;;;;;;5032640;28;20065;-65
2021/07/15 01:02:17;;;;;;;43.83;22.08;;;17.00;99.90;;;;;;5032759;28;20026;-64
2021/07/15 01:04:43;;;;;;;48.92;23.17;;;17.10;99.90;;;;;;5032370;28;20113;-64
2021/07/15 01:07:08;;;;;;;41.70;23.27;;;17.00;99.90;;;;;;5030956;28;20116;-65
2021/07/15 01:09:34;;;;;;;39.40;22.02;;;17.10;99.90;;;;;;5032118;28;20076;-65
2021/07/15 01:12:44;;;;;;;47.50;21.65;;;17.10;99.90;;;;;;5032123;28;20025;-65
2021/07/15 01:15:14;;;;;;;45.83;20.92;;;17.00;99.90;;;;;;5011037;28;20091;-65
2021/07/15 01:17:58;;;;;;;42.97;22.40;;;17.00;99.90;;;;;;5032234;28;20022;-64
2021/07/15 01:20:54;;;;;;;49.30;22.55;;;17.00;99.90;;;;;;5032088;28;20021;-64
2021/07/15 01:23:38;;;;;;;44.75;20.33;;;17.10;99.90;;;;;;5032164;28;20025;-64
2021/07/15 01:26:09;;;;;;;45.88;20.83;;;17.00;99.90;;;;;;5031820;28;20436;-64
2021/07/15 01:29:21;;;;;;;36.85;19.15;;;17.10;99.90;;;;;;5031843;28;20390;-64
2021/07/15 01:31:50;;;;;;;41.47;20.48;;;17.10;99.90;;;;;;5031820;28;20025;-64
2021/07/15 01:34:19;;;;;;;41.72;20.23;;;17.10;99.90;;;;;;5030309;28;20053;-64
2021/07/15 01:36:49;;;;;;;40.97;20.48;;;17.00;99.90;;;;;;5031742;28;20068;-64
2021/07/15 01:39:16;;;;;;;47.75;21.30;;;17.00;99.90;;;;;;5031639;28;20435;-64
2021/07/15 01:41:48;;;;;;;44.53;20.20;;;17.00;99.90;;;;;;5031607;28;20022;-64
2021/07/15 01:44:29;;;;;;;42.53;20.25;;;17.00;99.90;;;;;;5031708;28;20127;-64
2021/07/15 01:46:55;;;;;;;42.53;19.98;;;17.00;99.90;;;;;;5031833;28;20087;-64
2021/07/15 01:49:22;;;;;;;46.30;19.63;;;17.10;99.90;;;;;;5030321;28;20504;-65
2021/07/15 01:51:48;;;;;;;47.28;19.30;;;17.00;99.90;;;;;;5030171;28;20053;-65
2021/07/15 01:54:14;;;;;;;45.38;18.73;;;17.00;99.90;;;;;;5031568;28;20040;-65
2021/07/15 01:56:41;;;;;;;45.70;19.98;;;17.00;99.90;;;;;;5029943;28;20030;-65
2021/07/15 01:59:12;;;;;;;44.53;19.33;;;17.00;99.90;;;;;;5029729;28;20485;-65
2021/07/15 02:01:38;;;;;;;37.20;18.98;;;17.00;99.90;;;;;;5030196;28;20463;-65
2021/07/15 02:04:06;;;;;;;37.55;19.23;;;17.00;99.90;;;;;;5031202;28;20028;-65
2021/07/15 02:06:33;;;;;;;42.00;19.65;;;17.00;99.90;;;;;;5031266;28;20026;-65
2021/07/15 02:09:00;;;;;;;41.83;19.63;;;17.00;99.90;;;;;;5030135;28;20026;-65
2021/07/15 02:11:32;;;;;;;47.92;20.48;;;17.00;99.90;;;;;;5031469;28;20104;-65
2021/07/15 02:14:00;;;;;;;;;;;17.00;99.90;;;;;;5030569;28;20427;-65
2021/07/15 02:16:26;;;;;;;38.97;18.27;;;16.90;99.90;;;;;;5030995;28;19960;-65
2021/07/15 02:18:53;;;;;;;48.58;20.13;;;16.90;99.90;;;;;;5031307;28;20029;-65
2021/07/15 02:21:19;;;;;;;47.22;21.23;;;16.90;99.90;;;;;;5029841;28;20028;-65
2021/07/15 02:23:45;;;;;;;50.75;20.60;;;17.00;99.90;;;;;;5030210;28;20383;-65
2021/07/15 02:26:12;;;;;;;47.50;19.92;;;17.00;99.90;;;;;;5029645;28;20049;-65
2021/07/15 02:28:38;;;;;;;47.50;19.35;;;17.00;99.90;;;;;;5030939;28;20084;-65
2021/07/15 02:31:16;;;;;;;40.05;18.30;;;16.90;99.90;;;;;;5031099;28;20026;-65
2021/07/15 02:33:52;;;;;;;51.40;20.00;;;16.90;99.90;;;;;;5030922;28;20018;-65
2021/07/15 02:36:20;;;;;;;44.28;20.25;;;16.90;99.90;;;;;;5029792;28;20560;-65
2021/07/15 02:38:48;;;;;;;49.60;21.45;;;16.90;99.90;;;;;;5030987;28;20072;-65
2021/07/15 02:41:14;;;;;;;53.83;22.05;;;16.90;99.90;;;;;;5029669;28;20072;-65
2021/07/15 02:43:40;;;;;;;37.75;19.92;;;16.90;99.90;;;;;;5031011;28;20030;-65
2021/07/15 02:46:05;;;;;;;50.17;20.40;;;16.90;99.90;;;;;;5030801;28;20561;-65
2021/07/15 02:48:31;;;;;;;45.95;20.15;;;16.90;99.90;;;;;;5031006;28;20025;-64
2021/07/15 02:50:56;;;;;;;46.67;20.10;;;16.90;99.90;;;;;;5031200;28;20371;-64
2021/07/15 02:53:22;;;;;;;50.22;20.75;;;16.90;99.90;;;;;;5030837;28;20483;-64
2021/07/15 02:56:11;;;;;;;44.72;19.98;;;16.90;99.90;;;;;;5031048;28;20036;-64
2021/07/15 02:58:44;;;;;;;56.80;20.27;;;16.90;99.90;;;;;;5029477;28;20026;-64
2021/07/15 03:01:14;;;;;;;43.95;19.67;;;16.90;99.90;;;;;;5029570;28;20049;-64
2021/07/15 03:04:00;;;;;;;53.10;20.38;;;16.90;99.90;;;;;;5029484;28;20493;-64
2021/07/15 03:06:36;;;;;;;46.85;21.08;;;16.90;99.90;;;;;;5029213;28;20530;-65
2021/07/15 03:09:07;;;;;;;48.22;21.20;;;16.90;99.90;;;;;;5029561;28;20490;-65
2021/07/15 03:11:38;;;;;;;43.90;22.58;;;16.90;99.90;;;;;;5033322;28;20037;-65
2021/07/15 03:14:06;;;;;;;48.07;21.73;;;16.80;99.90;;;;;;5034743;28;20048;-65
2021/07/15 03:16:34;;;;;;;52.20;21.02;;;16.80;99.90;;;;;;5034360;28;20037;-65
2021/07/15 03:19:03;;;;;;;53.00;21.23;;;16.90;99.90;;;;;;5034396;28;20056;-64
2021/07/15 03:21:29;;;;;;;44.85;20.08;;;16.90;99.90;;;;;;5034348;28;20467;-64
2021/07/15 03:23:58;;;;;;;45.40;20.15;;;16.90;99.90;;;;;;5033001;28;20025;-64
2021/07/15 03:26:24;;;;;;;50.42;20.90;;;16.80;99.90;;;;;;5034348;28;20029;-64
2021/07/15 03:28:52;;;;;;;50.40;20.95;;;16.80;99.90;;;;;;5034609;28;20552;-65
2021/07/15 03:31:18;;;;;;;55.00;21.58;;;16.80;99.90;;;;;;5034236;28;20017;-65
2021/07/15 03:33:45;;;;;;;51.13;20.50;;;16.80;99.90;;;;;;5033865;28;20505;-63
2021/07/15 03:36:12;;;;;;;45.38;20.98;;;16.80;99.90;;;;;;5032870;28;20041;-65
2021/07/15 03:38:39;;;;;;;49.80;21.08;;;16.80;99.90;;;;;;5034189;28;20044;-65
2021/07/15 03:41:06;;;;;;;44.13;20.40;;;16.80;99.90;;;;;;5034129;28;20136;-65
2021/07/15 03:43:35;;;;;;;52.47;21.65;;;16.70;99.90;;;;;;5034047;28;20069;-65
2021/07/15 03:46:02;;;;;;;52.80;22.30;;;16.70;99.90;;;;;;5032640;28;20455;-64
2021/07/15 03:48:29;;;;;;;50.17;21.08;;;16.70;99.90;;;;;;5033991;28;20017;-65
2021/07/15 03:50:58;;;;;;;48.53;20.88;;;16.70;99.90;;;;;;5033714;28;20103;-64
2021/07/15 03:53:25;;;;;;;52.55;23.50;;;16.70;99.90;;;;;;5033825;28;20079;-64
2021/07/15 03:55:51;;;;;;;63.28;24.60;;;16.70;99.90;;;;;;5033730;28;20033;-64
2021/07/15 03:58:17;;;;;;;53.50;23.75;;;16.70;99.90;;;;;;5032379;28;20021;-64
2021/07/15 04:00:45;;;;;;;54.97;25.75;;;16.80;99.90;;;;;;5032328;28;20025;-64
2021/07/15 04:03:15;;;;;;;51.08;25.58;;;16.70;99.90;;;;;;5033560;28;20026;-64
2021/07/15 04:05:41;;;;;;;52.45;25.95;;;16.70;99.90;;;;;;5033591;28;20383;-64
2021/07/15 04:08:08;;;;;;;53.30;26.48;;;16.70;99.90;;;;;;5032086;28;20022;-64
2021/07/15 04:10:34;;;;;;;55.53;27.35;;;16.70;99.90;;;;;;5032315;28;20022;-64
2021/07/15 04:13:01;;;;;;;65.03;27.33;;;16.70;99.90;;;;;;5033282;28;20356;-64
2021/07/15 04:15:38;;;;;;;62.38;28.70;;;16.70;99.90;;;;;;5033436;28;20033;-64
2021/07/15 04:18:06;;;;;;;59.90;29.80;;;16.70;99.90;;;;;;5033198;28;20037;-64
2021/07/15 04:20:32;;;;;;;55.28;28.27;;;16.80;99.90;;;;;;5032809;28;20493;-64
2021/07/15 04:22:59;;;;;;;63.95;29.33;;;16.80;99.90;;;;;;5033193;28;20436;-64
2021/07/15 04:25:26;;;;;;;55.92;30.13;;;16.80;99.90;;;;;;5033352;28;20019;-64
2021/07/15 04:27:58;;;;;;;59.97;31.17;;;16.80;99.90;;;;;;5033082;28;20092;-64
2021/07/15 04:30:24;;;;;;;63.67;32.70;;;16.80;99.90;;;;;;5033056;28;20028;-65
2021/07/15 04:33:08;;;;;;;66.50;34.42;;;16.80;99.90;;;;;;5033186;28;20032;-65
2021/07/15 04:35:35;;;;;;;53.95;33.40;;;16.80;99.90;;;;;;5032946;28;20071;-65
2021/07/15 04:38:03;;;;;;;59.22;33.17;;;16.90;99.90;;;;;;5031664;28;20116;-65
2021/07/15 04:40:30;;;;;;;61.40;33.38;;;16.90;99.90;;;;;;5032892;28;20100;-65
2021/07/15 04:43:06;;;;;;;58.35;31.85;;;16.90;99.90;;;;;;5032882;28;20470;-65
2021/07/15 04:45:34;;;;;;;59.53;35.03;;;16.80;99.90;;;;;;5032803;28;20475;-65
2021/07/15 04:48:00;;;;;;;59.85;34.92;;;16.80;99.90;;;;;;5032737;28;20044;-65
2021/07/15 04:50:32;;;;;;;56.15;33.45;;;16.80;99.90;;;;;;5032723;28;20026;-64
2021/07/15 04:53:06;;;;;;;60.78;37.42;;;16.90;99.90;;;;;;5032709;28;20490;-64
2021/07/15 04:55:33;;;;;;;66.10;39.35;;;16.90;99.90;;;;;;5032649;28;20036;-64
2021/07/15 04:58:01;;;;;;;64.38;38.65;;;16.90;99.90;;;;;;5032426;28;20386;-64
2021/07/15 05:00:28;;;;;;;60.28;38.08;;;16.90;99.90;;;;;;5031047;28;20502;-64
2021/07/15 05:03:02;;;;;;;60.28;39.30;;;16.90;99.90;;;;;;5032355;28;20028;-64
2021/07/15 05:05:28;;;;;;;61.53;39.28;;;16.90;99.90;;;;;;5032446;28;20022;-64
2021/07/15 05:07:54;;;;;;;64.43;39.45;;;16.90;99.90;;;;;;5032271;28;20075;-63
2021/07/15 05:10:19;;;;;;;62.65;37.95;;;16.90;99.90;;;;;;5032419;28;20037;-62
2021/07/15 05:12:45;;;;;;;59.33;36.65;;;16.90;99.90;;;;;;5032253;28;20021;-64
2021/07/15 05:15:11;;;;;;;51.33;33.20;;;16.90;99.90;;;;;;5032355;28;20471;-64
2021/07/15 05:17:38;;;;;;;56.90;31.23;;;16.90;99.90;;;;;;5030792;28;20498;-64
2021/07/15 05:20:08;;;;;;;52.65;32.25;;;16.90;99.90;;;;;;5032188;28;20029;-64
2021/07/15 05:22:35;;;;;;;52.75;31.73;;;16.90;99.90;;;;;;5030847;28;20121;-64
2021/07/15 05:25:01;;;;;;;57.85;31.65;;;16.90;99.90;;;;;;5032030;28;20029;-64
2021/07/15 05:27:26;;;;;;;55.72;31.25;;;16.90;99.90;;;;;;5032199;28;20029;-64
2021/07/15 05:29:52;;;;;;;56.15;30.92;;;17.00;99.90;;;;;;5031908;28;20105;-64
2021/07/15 05:32:18;;;;;;;45.65;27.60;;;17.00;99.90;;;;;;5030048;28;20466;-64
2021/07/15 05:34:43;;;;;;;44.67;27.45;;;17.00;99.90;;;;;;5031788;28;20218;-64
2021/07/15 05:37:09;;;;;;;42.30;26.58;;;16.90;99.90;;;;;;5030909;28;20029;-65
2021/07/15 05:39:38;;;;;;;43.50;26.00;;;17.00;99.90;;;;;;5031992;28;20034;-64
2021/07/15 05:42:04;;;;;;;43.60;27.88;;;17.00;99.90;;;;;;5031811;28;20100;-64
2021/07/15 05:44:29;;;;;;;53.63;28.85;;;17.00;99.90;;;;;;5030536;28;20029;-64
2021/07/15 05:46:55;;;;;;;48.55;30.70;;;17.00;99.90;;;;;;5031690;28;20048;-64
2021/07/15 05:49:20;;;;;;;56.20;32.22;;;17.00;99.90;;;;;;5031860;28;20021;-65
2021/07/15 05:51:46;;;;;;;52.22;31.63;;;17.00;99.90;;;;;;5031757;28;20097;-65
2021/07/15 05:54:15;;;;;;;53.58;29.05;;;17.00;99.90;;;;;;5031493;28;20018;-65
2021/07/15 05:56:40;;;;;;;52.78;30.98;;;17.00;99.90;;;;;;5031415;28;20041;-65
2021/07/15 05:59:06;;;;;;;54.55;31.73;;;17.00;99.90;;;;;;5029957;28;20025;-65
2021/07/15 06:01:32;;;;;;;48.97;29.17;;;17.10;99.90;;;;;;5030599;28;20025;-65
2021/07/15 06:03:57;;;;;;;45.35;29.13;;;17.00;99.90;;;;;;5029316;28;20021;-64
2021/07/15 06:06:23;;;;;;;52.70;27.40;;;17.10;99.90;;;;;;5030138;28;20025;-63
2021/07/15 06:08:48;;;;;;;48.65;27.38;;;17.10;99.90;;;;;;5030480;28;20021;-64
2021/07/15 06:11:14;;;;;;;44.92;24.38;;;17.10;99.90;;;;;;5030935;28;20091;-65
2021/07/15 06:13:40;;;;;;;43.03;23.67;;;17.10;99.90;;;;;;5029967;28;20034;-65
2021/07/15 06:16:06;;;;;;;47.97;22.25;;;17.10;99.90;;;;;;5030686;28;20145;-65
2021/07/15 06:18:32;;;;;;;39.88;23.05;;;17.00;99.90;;;;;;5031296;28;20063;-65
2021/07/15 06:20:58;;;;;;;46.00;23.50;;;17.00;99.90;;;;;;5030732;28;20025;-66
2021/07/15 06:23:25;;;;;;;45.80;23.55;;;17.00;99.90;;;;;;5029569;28;20087;-66
2021/07/15 06:25:51;;;;;;;39.55;23.55;;;17.00;99.90;;;;;;5045453;22;20080;-79
